createdAt,value
2018-12-02T00:00:03.360Z,967.76
2018-12-02T00:01:03.425Z,967.73
2018-12-02T00:02:03.447Z,967.70
2018-12-02T00:03:03.496Z,967.74
2018-12-02T00:04:03.533Z,967.74
2018-12-02T00:05:03.578Z,967.79
2018-12-02T00:06:03.666Z,967.75
2018-12-02T00:07:03.660Z,967.76
2018-12-02T00:08:03.732Z,967.73
2018-12-02T00:09:03.742Z,967.70
2018-12-02T00:10:03.788Z,967.70
2018-12-02T00:11:03.843Z,967.72
2018-12-02T00:12:03.899Z,967.66
2018-12-02T00:13:03.918Z,967.54
2018-12-02T00:14:03.978Z,967.52
2018-12-02T00:15:04.007Z,967.55
2018-12-02T00:16:04.046Z,967.56
2018-12-02T00:17:04.089Z,967.54
2018-12-02T00:18:04.133Z,967.50
2018-12-02T00:19:04.193Z,967.50
2018-12-02T00:20:04.216Z,967.47
2018-12-02T00:21:04.276Z,967.41
2018-12-02T00:22:04.301Z,967.42
2018-12-02T00:23:04.355Z,967.45
2018-12-02T00:24:04.406Z,967.53
2018-12-02T00:25:04.430Z,967.50
2018-12-02T00:26:04.473Z,967.45
2018-12-02T00:27:04.536Z,967.45
2018-12-02T00:28:04.558Z,967.46
2018-12-02T00:29:04.653Z,967.43
2018-12-02T00:30:04.642Z,967.39
2018-12-02T00:31:04.714Z,967.33
2018-12-02T00:32:04.725Z,967.34
2018-12-02T00:33:04.771Z,967.34
2018-12-02T00:34:04.828Z,967.34
2018-12-02T00:35:04.858Z,967.41
2018-12-02T00:36:04.910Z,967.40
2018-12-02T00:37:04.949Z,967.43
2018-12-02T00:38:04.981Z,967.30
2018-12-02T00:39:05.070Z,967.31
2018-12-02T00:40:05.065Z,967.30
2018-12-02T00:41:05.127Z,967.26
2018-12-02T00:42:05.146Z,967.28
2018-12-02T00:43:05.188Z,967.19
2018-12-02T00:44:05.230Z,967.19
2018-12-02T00:45:05.269Z,967.14
2018-12-02T00:46:05.332Z,967.13
2018-12-02T00:47:05.354Z,967.11
2018-12-02T00:48:05.407Z,967.08
2018-12-02T00:49:05.439Z,967.09
2018-12-02T00:50:05.483Z,967.10
2018-12-02T00:51:05.548Z,967.08
2018-12-02T00:52:05.564Z,967.05
2018-12-02T00:53:05.613Z,967.01
2018-12-02T00:54:05.690Z,966.99
2018-12-02T00:55:05.690Z,967.03
2018-12-02T00:56:05.750Z,967.05
2018-12-02T00:57:05.770Z,967.01
2018-12-02T00:58:05.813Z,966.99
2018-12-02T00:59:05.858Z,967.04
2018-12-02T01:00:05.903Z,967.06
2018-12-02T01:01:05.958Z,967.09
2018-12-02T01:02:05.980Z,967.10
2018-12-02T01:03:06.036Z,967.11
2018-12-02T01:04:06.066Z,967.06
2018-12-02T01:05:06.106Z,967.05
2018-12-02T01:06:06.173Z,967.07
2018-12-02T01:07:06.188Z,967.02
2018-12-02T01:08:06.230Z,967.00
2018-12-02T01:09:06.279Z,967.03
2018-12-02T01:10:06.321Z,967.04
2018-12-02T01:11:06.379Z,967.07
2018-12-02T01:12:06.396Z,967.04
2018-12-02T01:13:06.437Z,967.03
2018-12-02T01:14:06.484Z,967.08
2018-12-02T01:15:06.521Z,967.08
2018-12-02T01:16:06.580Z,967.07
2018-12-02T01:17:06.618Z,967.03
2018-12-02T01:18:06.668Z,967.00
2018-12-02T01:19:06.694Z,967.01
2018-12-02T01:20:06.734Z,967.01
2018-12-02T01:21:06.773Z,967.01
2018-12-02T01:22:06.849Z,967.01
2018-12-02T01:23:06.872Z,967.00
2018-12-02T01:24:06.899Z,967.00
2018-12-02T01:25:06.942Z,966.99
2018-12-02T01:26:07.023Z,966.98
2018-12-02T01:27:07.021Z,966.99
2018-12-02T01:28:07.082Z,966.97
2018-12-02T01:29:07.110Z,966.97
2018-12-02T01:30:07.151Z,967.00
2018-12-02T01:31:07.214Z,967.04
2018-12-02T01:32:07.268Z,967.07
2018-12-02T01:33:07.351Z,967.05
2018-12-02T01:34:07.333Z,967.08
2018-12-02T01:35:07.358Z,967.08
2018-12-02T01:36:07.402Z,967.09
2018-12-02T01:37:07.469Z,967.09
2018-12-02T01:38:07.483Z,967.08
2018-12-02T01:39:07.527Z,967.08
2018-12-02T01:40:07.582Z,967.06
2018-12-02T01:41:07.609Z,967.04
2018-12-02T01:42:07.674Z,967.02
2018-12-02T01:43:07.695Z,966.92
2018-12-02T01:44:07.744Z,966.89
2018-12-02T01:45:07.787Z,966.90
2018-12-02T01:46:07.828Z,966.94
2018-12-02T01:47:07.881Z,966.97
2018-12-02T01:48:07.905Z,967.04
2018-12-02T01:49:07.995Z,967.04
2018-12-02T01:50:07.992Z,967.06
2018-12-02T01:51:08.035Z,967.02
2018-12-02T01:52:08.074Z,967.01
2018-12-02T01:53:08.147Z,967.03
2018-12-02T01:54:08.165Z,967.04
2018-12-02T01:55:08.203Z,967.03
2018-12-02T01:56:08.272Z,967.03
2018-12-02T01:57:08.292Z,967.07
2018-12-02T01:58:08.349Z,967.01
2018-12-02T01:59:08.369Z,966.95
2018-12-02T02:00:08.410Z,967.01
2018-12-02T02:01:08.451Z,966.94
2018-12-02T02:02:08.495Z,966.94
2018-12-02T02:03:08.579Z,966.90
2018-12-02T02:04:08.611Z,966.86
2018-12-02T02:05:08.621Z,966.84
2018-12-02T02:06:08.667Z,966.86
2018-12-02T02:07:08.708Z,966.82
2018-12-02T02:08:08.770Z,966.81
2018-12-02T02:09:08.804Z,966.78
2018-12-02T02:10:08.836Z,966.79
2018-12-02T02:11:08.878Z,966.75
2018-12-02T02:12:08.919Z,966.77
2018-12-02T02:13:08.999Z,966.72
2018-12-02T02:14:09.004Z,966.69
2018-12-02T02:15:09.051Z,966.64
2018-12-02T02:16:09.093Z,966.68
2018-12-02T02:17:09.132Z,966.65
2018-12-02T02:18:09.201Z,966.57
2018-12-02T02:19:09.218Z,966.57
2018-12-02T02:20:09.258Z,966.56
2018-12-02T02:21:09.340Z,966.60
2018-12-02T02:22:09.348Z,966.57
2018-12-02T02:23:09.385Z,966.61
2018-12-02T02:24:09.430Z,966.57
2018-12-02T02:25:09.478Z,966.61
2018-12-02T02:26:09.532Z,966.60
2018-12-02T02:27:09.576Z,966.63
2018-12-02T02:28:09.599Z,966.60
2018-12-02T02:29:09.647Z,966.63
2018-12-02T02:30:09.697Z,966.57
2018-12-02T02:31:09.740Z,966.59
2018-12-02T02:32:09.791Z,966.60
2018-12-02T02:33:09.812Z,966.61
2018-12-02T02:34:09.870Z,966.60
2018-12-02T02:35:09.903Z,966.54
2018-12-02T02:36:09.959Z,966.52
2018-12-02T02:37:09.980Z,966.48
2018-12-02T02:38:10.044Z,966.47
2018-12-02T02:39:10.063Z,966.50
2018-12-02T02:40:10.113Z,966.50
2018-12-02T02:41:10.160Z,966.48
2018-12-02T02:42:10.204Z,966.48
2018-12-02T02:43:10.257Z,966.42
2018-12-02T02:44:10.276Z,966.40
2018-12-02T02:45:10.323Z,966.39
2018-12-02T02:46:10.366Z,966.40
2018-12-02T02:47:10.408Z,966.48
2018-12-02T02:48:10.468Z,966.49
2018-12-02T02:49:10.504Z,966.47
2018-12-02T02:50:10.532Z,966.42
2018-12-02T02:51:10.577Z,966.38
2018-12-02T02:52:10.617Z,966.41
2018-12-02T02:53:10.684Z,966.40
2018-12-02T02:54:10.739Z,966.43
2018-12-02T02:55:10.745Z,966.43
2018-12-02T02:56:10.790Z,966.43
2018-12-02T02:57:10.832Z,966.46
2018-12-02T02:58:10.897Z,966.47
2018-12-02T02:59:10.915Z,966.47
2018-12-02T03:00:10.989Z,966.47
2018-12-02T03:01:11.019Z,966.46
2018-12-02T03:02:11.048Z,966.48
2018-12-02T03:03:11.089Z,966.48
2018-12-02T03:04:11.133Z,966.46
2018-12-02T03:05:11.175Z,966.46
2018-12-02T03:06:11.235Z,966.43
2018-12-02T03:07:11.316Z,966.40
2018-12-02T03:08:11.304Z,966.42
2018-12-02T03:09:11.359Z,966.39
2018-12-02T03:10:11.384Z,966.35
2018-12-02T03:11:11.457Z,966.37
2018-12-02T03:12:11.484Z,966.38
2018-12-02T03:13:11.522Z,966.42
2018-12-02T03:14:11.605Z,966.37
2018-12-02T03:15:11.632Z,966.36
2018-12-02T03:16:11.641Z,966.31
2018-12-02T03:17:11.691Z,966.29
2018-12-02T03:18:11.733Z,966.26
2018-12-02T03:19:11.772Z,966.26
2018-12-02T03:20:11.836Z,966.24
2018-12-02T03:21:11.864Z,966.25
2018-12-02T03:22:11.905Z,966.23
2018-12-02T03:23:11.947Z,966.18
2018-12-02T03:24:11.989Z,966.18
2018-12-02T03:25:12.079Z,966.16
2018-12-02T03:26:12.078Z,966.19
2018-12-02T03:27:12.113Z,966.18
2018-12-02T03:28:12.159Z,966.20
2018-12-02T03:29:12.201Z,966.16
2018-12-02T03:30:12.337Z,966.15
2018-12-02T03:31:12.305Z,966.10
2018-12-02T03:32:12.359Z,966.10
2018-12-02T03:33:12.396Z,966.07
2018-12-02T03:34:12.445Z,966.08
2018-12-02T03:35:12.463Z,966.06
2018-12-02T03:36:12.520Z,966.05
2018-12-02T03:37:12.652Z,966.02
2018-12-02T03:38:12.593Z,966.04
2018-12-02T03:39:12.661Z,965.98
2018-12-02T03:40:12.677Z,965.95
2018-12-02T03:41:12.731Z,965.96
2018-12-02T03:42:12.765Z,965.93
2018-12-02T03:43:12.802Z,965.97
2018-12-02T03:44:12.993Z,965.86
2018-12-02T03:45:12.893Z,965.87
2018-12-02T03:46:12.934Z,965.86
2018-12-02T03:47:12.976Z,965.83
2018-12-02T03:48:13.017Z,965.83
2018-12-02T03:49:13.085Z,965.79
2018-12-02T03:50:17.445Z,965.72
2018-12-02T03:51:13.171Z,965.79
2018-12-02T03:52:13.210Z,965.80
2018-12-02T03:53:13.243Z,965.73
2018-12-02T03:54:13.277Z,965.70
2018-12-02T03:55:13.329Z,965.69
2018-12-02T03:56:13.361Z,965.68
2018-12-02T03:57:13.442Z,965.67
2018-12-02T03:58:13.459Z,965.66
2018-12-02T03:59:13.493Z,965.73
2018-12-02T04:00:13.535Z,965.73
2018-12-02T04:01:13.596Z,965.71
2018-12-02T04:02:13.626Z,965.71
2018-12-02T04:03:13.685Z,965.73
2018-12-02T04:04:13.709Z,965.73
2018-12-02T04:05:13.756Z,965.70
2018-12-02T04:06:13.795Z,965.71
2018-12-02T04:07:13.831Z,965.65
2018-12-02T04:08:13.901Z,965.65
2018-12-02T04:09:13.928Z,965.64
2018-12-02T04:10:13.989Z,965.64
2018-12-02T04:11:14.007Z,965.69
2018-12-02T04:12:14.055Z,965.74
2018-12-02T04:13:14.116Z,965.72
2018-12-02T04:14:14.135Z,965.67
2018-12-02T04:15:14.178Z,965.68
2018-12-02T04:16:14.293Z,965.71
2018-12-02T04:17:14.273Z,965.69
2018-12-02T04:18:14.333Z,965.69
2018-12-02T04:19:14.356Z,965.66
2018-12-02T04:20:14.418Z,965.67
2018-12-02T04:21:14.448Z,965.68
2018-12-02T04:22:14.481Z,965.69
2018-12-02T04:23:14.565Z,965.66
2018-12-02T04:24:14.586Z,965.57
2018-12-02T04:25:14.609Z,965.57
2018-12-02T04:26:14.652Z,965.54
2018-12-02T04:27:14.715Z,965.48
2018-12-02T04:28:14.741Z,965.46
2018-12-02T04:29:14.809Z,965.47
2018-12-02T04:30:14.828Z,965.47
2018-12-02T04:31:14.895Z,965.49
2018-12-02T04:32:14.912Z,965.45
2018-12-02T04:33:14.956Z,965.46
2018-12-02T04:34:15.003Z,965.51
2018-12-02T04:35:15.065Z,965.50
2018-12-02T04:36:15.085Z,965.45
2018-12-02T04:37:15.126Z,965.43
2018-12-02T04:38:15.172Z,965.41
2018-12-02T04:39:15.233Z,965.43
2018-12-02T04:40:15.259Z,965.38
2018-12-02T04:41:15.311Z,965.35
2018-12-02T04:42:15.370Z,965.40
2018-12-02T04:43:15.386Z,965.43
2018-12-02T04:44:15.428Z,965.42
2018-12-02T04:45:15.476Z,965.40
2018-12-02T04:46:15.666Z,965.38
2018-12-02T04:47:15.564Z,965.33
2018-12-02T04:48:15.612Z,965.37
2018-12-02T04:49:15.648Z,965.35
2018-12-02T04:50:15.690Z,965.29
2018-12-02T04:51:15.750Z,965.29
2018-12-02T04:52:15.776Z,965.30
2018-12-02T04:53:15.821Z,965.22
2018-12-02T04:54:15.873Z,965.14
2018-12-02T04:55:15.905Z,965.13
2018-12-02T04:56:15.965Z,965.16
2018-12-02T04:57:15.993Z,965.15
2018-12-02T04:58:16.059Z,965.16
2018-12-02T04:59:16.076Z,965.13
2018-12-02T05:00:16.122Z,965.17
2018-12-02T05:01:16.228Z,965.18
2018-12-02T05:02:16.213Z,965.18
2018-12-02T05:03:16.295Z,965.15
2018-12-02T05:04:16.308Z,965.21
2018-12-02T05:05:16.339Z,965.18
2018-12-02T05:06:16.385Z,965.19
2018-12-02T05:07:16.424Z,965.18
2018-12-02T05:08:16.489Z,965.18
2018-12-02T05:09:16.512Z,965.24
2018-12-02T05:10:16.560Z,965.19
2018-12-02T05:11:16.648Z,965.14
2018-12-02T05:12:16.640Z,965.07
2018-12-02T05:13:16.705Z,965.04
2018-12-02T05:14:16.748Z,965.02
2018-12-02T05:15:16.782Z,965.02
2018-12-02T05:16:16.816Z,965.00
2018-12-02T05:17:16.859Z,964.95
2018-12-02T05:18:16.898Z,964.94
2018-12-02T05:19:16.967Z,964.91
2018-12-02T05:20:16.991Z,964.96
2018-12-02T05:21:17.030Z,964.95
2018-12-02T05:22:17.092Z,965.02
2018-12-02T05:23:17.132Z,965.01
2018-12-02T05:24:17.189Z,965.03
2018-12-02T05:25:18.397Z,965.07
2018-12-02T05:26:17.241Z,965.00
2018-12-02T05:27:17.288Z,964.96
2018-12-02T05:28:17.333Z,964.99
2018-12-02T05:29:17.408Z,965.00
2018-12-02T05:30:17.446Z,965.01
2018-12-02T05:31:17.472Z,965.02
2018-12-02T05:32:17.511Z,964.98
2018-12-02T05:33:17.560Z,965.03
2018-12-02T05:34:17.628Z,965.03
2018-12-02T05:35:17.641Z,965.03
2018-12-02T05:36:17.709Z,965.08
2018-12-02T05:37:17.726Z,965.09
2018-12-02T05:38:17.772Z,965.07
2018-12-02T05:39:17.811Z,965.14
2018-12-02T05:40:17.861Z,965.06
2018-12-02T05:41:17.918Z,965.06
2018-12-02T05:42:17.962Z,965.06
2018-12-02T05:43:17.987Z,965.06
2018-12-02T05:44:18.027Z,965.08
2018-12-02T05:45:18.093Z,965.10
2018-12-02T05:46:18.113Z,965.08
2018-12-02T05:47:18.153Z,965.07
2018-12-02T05:48:18.240Z,965.08
2018-12-02T05:49:18.242Z,965.09
2018-12-02T05:50:18.315Z,965.10
2018-12-02T05:51:18.336Z,965.06
2018-12-02T05:52:18.402Z,964.99
2018-12-02T05:53:18.426Z,965.01
2018-12-02T05:54:18.467Z,965.08
2018-12-02T05:55:18.509Z,965.08
2018-12-02T05:56:18.547Z,965.01
2018-12-02T05:57:18.615Z,964.98
2018-12-02T05:58:18.634Z,965.00
2018-12-02T05:59:18.673Z,964.97
2018-12-02T06:00:18.715Z,964.98
2018-12-02T06:01:18.760Z,964.97
2018-12-02T06:02:18.827Z,964.96
2018-12-02T06:03:18.848Z,964.97
2018-12-02T06:04:18.891Z,964.93
2018-12-02T06:05:18.938Z,964.94
2018-12-02T06:06:18.978Z,964.95
2018-12-02T06:07:19.052Z,964.84
2018-12-02T06:08:19.085Z,964.81
2018-12-02T06:09:19.129Z,964.79
2018-12-02T06:10:19.161Z,964.80
2018-12-02T06:11:19.196Z,964.81
2018-12-02T06:12:19.237Z,964.89
2018-12-02T06:13:19.311Z,964.93
2018-12-02T06:14:19.328Z,964.97
2018-12-02T06:15:19.388Z,964.99
2018-12-02T06:16:19.424Z,964.97
2018-12-02T06:17:19.455Z,964.99
2018-12-02T06:18:19.497Z,965.01
2018-12-02T06:19:19.542Z,964.99
2018-12-02T06:20:19.611Z,964.98
2018-12-02T06:21:19.641Z,964.92
2018-12-02T06:22:19.672Z,964.93
2018-12-02T06:23:19.717Z,964.93
2018-12-02T06:24:19.759Z,964.95
2018-12-02T06:25:19.866Z,964.94
2018-12-02T06:26:19.845Z,964.94
2018-12-02T06:27:19.982Z,964.95
2018-12-02T06:28:19.932Z,964.92
2018-12-02T06:29:19.982Z,964.87
2018-12-02T06:30:20.062Z,964.84
2018-12-02T06:31:20.064Z,964.86
2018-12-02T06:32:20.107Z,964.94
2018-12-02T06:33:20.152Z,964.97
2018-12-02T06:34:20.210Z,964.89
2018-12-02T06:35:20.267Z,964.83
2018-12-02T06:36:20.288Z,964.83
2018-12-02T06:37:20.325Z,964.79
2018-12-02T06:38:20.366Z,964.75
2018-12-02T06:39:20.416Z,964.79
2018-12-02T06:40:20.477Z,964.86
2018-12-02T06:41:20.492Z,964.82
2018-12-02T06:42:20.545Z,964.83
2018-12-02T06:43:20.590Z,964.87
2018-12-02T06:44:20.625Z,964.83
2018-12-02T06:45:20.694Z,964.83
2018-12-02T06:46:20.726Z,964.85
2018-12-02T06:47:20.764Z,964.77
2018-12-02T06:48:20.796Z,964.77
2018-12-02T06:49:20.847Z,964.84
2018-12-02T06:50:20.908Z,964.89
2018-12-02T06:51:20.940Z,964.91
2018-12-02T06:52:20.972Z,964.87
2018-12-02T06:53:21.013Z,964.81
2018-12-02T06:54:21.059Z,964.83
2018-12-02T06:55:21.115Z,964.83
2018-12-02T06:56:21.144Z,964.79
2018-12-02T06:57:21.186Z,964.67
2018-12-02T06:58:21.227Z,964.69
2018-12-02T06:59:21.293Z,964.69
2018-12-02T07:00:21.315Z,964.73
2018-12-02T07:01:21.366Z,964.67
2018-12-02T07:02:21.406Z,964.67
2018-12-02T07:03:21.465Z,964.58
2018-12-02T07:04:21.498Z,964.61
2018-12-02T07:05:21.536Z,964.66
2018-12-02T07:06:21.597Z,964.67
2018-12-02T07:07:21.619Z,964.70
2018-12-02T07:08:21.678Z,964.74
2018-12-02T07:09:21.705Z,964.71
2018-12-02T07:10:21.744Z,964.72
2018-12-02T07:11:21.812Z,964.88
2018-12-02T07:12:21.852Z,964.71
2018-12-02T07:13:21.873Z,964.63
2018-12-02T07:14:21.929Z,964.72
2018-12-02T07:15:21.962Z,964.73
2018-12-02T07:16:22.026Z,964.72
2018-12-02T07:17:22.054Z,964.68
2018-12-02T07:18:22.108Z,964.62
2018-12-02T07:19:22.134Z,964.63
2018-12-02T07:20:22.178Z,964.62
2018-12-02T07:21:22.250Z,964.60
2018-12-02T07:22:22.268Z,964.61
2018-12-02T07:23:22.313Z,964.59
2018-12-02T07:24:22.352Z,964.61
2018-12-02T07:25:22.424Z,964.65
2018-12-02T07:26:22.441Z,964.63
2018-12-02T07:27:22.489Z,964.64
2018-12-02T07:28:22.535Z,964.58
2018-12-02T07:29:22.666Z,964.65
2018-12-02T07:30:24.998Z,964.58
2018-12-02T07:31:22.651Z,964.63
2018-12-02T07:32:22.709Z,964.67
2018-12-02T07:33:22.742Z,964.69
2018-12-02T07:34:22.790Z,964.67
2018-12-02T07:35:22.849Z,964.62
2018-12-02T07:36:23.008Z,964.60
2018-12-02T07:37:22.916Z,964.59
2018-12-02T07:38:22.975Z,964.58
2018-12-02T07:39:23.003Z,964.62
2018-12-02T07:40:23.071Z,964.70
2018-12-02T07:41:23.087Z,964.71
2018-12-02T07:42:23.136Z,964.77
2018-12-02T07:43:23.180Z,964.78
2018-12-02T07:44:23.216Z,964.78
2018-12-02T07:45:23.293Z,964.81
2018-12-02T07:46:23.303Z,964.82
2018-12-02T07:47:23.354Z,964.84
2018-12-02T07:48:23.388Z,964.85
2018-12-02T07:49:23.449Z,964.86
2018-12-02T07:50:23.509Z,964.80
2018-12-02T07:51:23.519Z,964.82
2018-12-02T07:52:23.574Z,964.86
2018-12-02T07:53:23.602Z,964.89
2018-12-02T07:54:23.653Z,964.89
2018-12-02T07:55:23.715Z,964.85
2018-12-02T07:56:23.747Z,964.89
2018-12-02T07:57:23.780Z,964.84
2018-12-02T07:58:23.830Z,964.81
2018-12-02T07:59:23.872Z,964.81
2018-12-02T08:00:23.938Z,964.75
2018-12-02T08:01:23.955Z,964.64
2018-12-02T08:02:24.003Z,964.59
2018-12-02T08:03:24.054Z,964.61
2018-12-02T08:04:24.089Z,964.61
2018-12-02T08:05:24.131Z,964.64
2018-12-02T08:06:24.168Z,964.69
2018-12-02T08:07:24.238Z,964.67
2018-12-02T08:08:24.256Z,964.67
2018-12-02T08:09:26.297Z,964.62
2018-12-02T08:10:24.342Z,964.65
2018-12-02T08:11:24.797Z,964.71
2018-12-02T08:12:24.451Z,964.72
2018-12-02T08:13:24.482Z,964.69
2018-12-02T08:14:24.567Z,964.57
2018-12-02T08:15:24.558Z,964.59
2018-12-02T08:16:24.636Z,964.69
2018-12-02T08:17:25.304Z,964.62
2018-12-02T08:18:25.301Z,964.57
2018-12-02T08:19:24.737Z,964.48
2018-12-02T08:20:24.781Z,964.55
2018-12-02T08:21:24.853Z,964.70
2018-12-02T08:22:24.867Z,964.80
2018-12-02T08:23:24.916Z,964.81
2018-12-02T08:24:24.983Z,964.78
2018-12-02T08:25:24.992Z,964.76
2018-12-02T08:26:25.040Z,964.72
2018-12-02T08:27:25.084Z,964.73
2018-12-02T08:28:25.126Z,964.79
2018-12-02T08:29:25.201Z,964.81
2018-12-02T08:30:25.234Z,964.80
2018-12-02T08:31:25.285Z,964.82
2018-12-02T08:32:25.305Z,964.74
2018-12-02T08:33:25.356Z,964.84
2018-12-02T08:34:25.831Z,964.91
2018-12-02T08:35:25.446Z,964.91
2018-12-02T08:36:25.505Z,964.81
2018-12-02T08:37:25.522Z,964.75
2018-12-02T08:38:25.634Z,964.65
2018-12-02T08:39:25.605Z,964.61
2018-12-02T08:40:25.683Z,964.70
2018-12-02T08:41:25.698Z,964.74
2018-12-02T08:42:25.757Z,964.76
2018-12-02T08:43:26.308Z,964.75
2018-12-02T08:44:25.828Z,964.76
2018-12-02T08:45:25.907Z,964.79
2018-12-02T08:46:25.933Z,964.80
2018-12-02T08:47:25.977Z,964.81
2018-12-02T08:48:26.003Z,964.85
2018-12-02T08:49:26.798Z,964.87
2018-12-02T08:50:26.109Z,964.85
2018-12-02T08:51:26.129Z,964.86
2018-12-02T08:52:26.193Z,964.86
2018-12-02T08:53:26.243Z,964.88
2018-12-02T08:54:26.261Z,964.87
2018-12-02T08:55:26.301Z,964.93
2018-12-02T08:56:26.349Z,964.97
2018-12-02T08:57:26.415Z,965.02
2018-12-02T08:58:26.446Z,964.91
2018-12-02T08:59:28.298Z,964.89
2018-12-02T09:00:26.525Z,964.93
2018-12-02T09:01:26.603Z,964.95
2018-12-02T09:02:26.626Z,964.92
2018-12-02T09:03:26.656Z,964.88
2018-12-02T09:04:26.707Z,964.94
2018-12-02T09:05:26.752Z,964.93
2018-12-02T09:06:26.807Z,964.97
2018-12-02T09:07:26.854Z,965.02
2018-12-02T09:08:26.884Z,964.99
2018-12-02T09:09:28.804Z,964.99
2018-12-02T09:10:26.962Z,964.92
2018-12-02T09:11:27.033Z,964.79
2018-12-02T09:12:27.054Z,964.81
2018-12-02T09:13:27.118Z,964.96
2018-12-02T09:14:27.148Z,964.99
2018-12-02T09:15:27.184Z,965.05
2018-12-02T09:16:27.252Z,965.06
2018-12-02T09:17:27.320Z,965.12
2018-12-02T09:18:27.325Z,965.21
2018-12-02T09:19:27.363Z,965.28
2018-12-02T09:20:27.402Z,965.37
2018-12-02T09:21:27.476Z,965.39
2018-12-02T09:22:27.487Z,965.41
2018-12-02T09:23:27.564Z,965.42
2018-12-02T09:24:27.582Z,965.50
2018-12-02T09:25:27.625Z,965.43
2018-12-02T09:26:27.685Z,965.40
2018-12-02T09:27:27.715Z,965.40
2018-12-02T09:28:27.764Z,965.40
2018-12-02T09:29:27.810Z,965.37
2018-12-02T09:30:27.842Z,965.29
2018-12-02T09:31:27.920Z,965.27
2018-12-02T09:32:27.949Z,965.34
2018-12-02T09:33:27.979Z,965.38
2018-12-02T09:34:28.028Z,965.38
2018-12-02T09:35:28.080Z,965.35
2018-12-02T09:36:28.141Z,965.29
2018-12-02T09:37:28.163Z,965.28
2018-12-02T09:38:28.194Z,965.32
2018-12-02T09:39:28.244Z,965.30
2018-12-02T09:40:28.288Z,965.36
2018-12-02T09:41:28.346Z,965.37
2018-12-02T09:42:28.389Z,965.35
2018-12-02T09:43:28.422Z,965.32
2018-12-02T09:44:28.461Z,965.34
2018-12-02T09:45:28.502Z,965.39
2018-12-02T09:46:28.562Z,965.48
2018-12-02T09:47:28.632Z,965.55
2018-12-02T09:48:28.642Z,965.68
2018-12-02T09:49:28.677Z,965.65
2018-12-02T09:50:28.725Z,965.69
2018-12-02T09:51:28.766Z,965.77
2018-12-02T09:52:28.830Z,965.92
2018-12-02T09:53:28.881Z,966.00
2018-12-02T09:54:28.933Z,966.04
2018-12-02T09:55:28.941Z,966.05
2018-12-02T09:56:28.996Z,966.08
2018-12-02T09:57:29.033Z,966.03
2018-12-02T09:58:29.102Z,966.03
2018-12-02T09:59:29.121Z,966.01
2018-12-02T10:00:33.933Z,965.96
2018-12-02T10:01:29.236Z,965.91
2018-12-02T10:02:29.267Z,965.93
2018-12-02T10:03:29.334Z,965.91
2018-12-02T10:04:29.348Z,965.85
2018-12-02T10:05:29.402Z,965.82
2018-12-02T10:06:29.436Z,965.73
2018-12-02T10:07:29.485Z,965.72
2018-12-02T10:08:29.682Z,965.71
2018-12-02T10:09:29.582Z,965.79
2018-12-02T10:10:29.614Z,965.71
2018-12-02T10:11:29.658Z,965.82
2018-12-02T10:12:29.709Z,965.85
2018-12-02T10:13:29.793Z,965.89
2018-12-02T10:14:29.800Z,965.88
2018-12-02T10:15:29.850Z,965.93
2018-12-02T10:16:29.876Z,965.89
2018-12-02T10:17:29.933Z,965.83
2018-12-02T10:18:30.001Z,965.79
2018-12-02T10:19:30.030Z,965.75
2018-12-02T10:20:30.062Z,965.78
2018-12-02T10:21:30.124Z,965.74
2018-12-02T10:22:30.151Z,965.65
2018-12-02T10:23:30.195Z,965.62
2018-12-02T10:24:30.287Z,965.51
2018-12-02T10:25:30.285Z,965.47
2018-12-02T10:26:30.329Z,965.53
2018-12-02T10:27:30.371Z,965.35
2018-12-02T10:28:30.443Z,965.20
2018-12-02T10:29:30.462Z,965.13
2018-12-02T10:30:30.516Z,965.15
2018-12-02T10:31:30.544Z,965.27
2018-12-02T10:32:30.589Z,965.21
2018-12-02T10:33:30.655Z,965.08
2018-12-02T10:34:30.699Z,964.98
2018-12-02T10:35:30.719Z,964.96
2018-12-02T10:36:30.762Z,964.99
2018-12-02T10:37:30.809Z,965.01
2018-12-02T10:38:30.866Z,965.01
2018-12-02T10:39:30.917Z,964.95
2018-12-02T10:40:30.966Z,964.93
2018-12-02T10:41:30.995Z,965.01
2018-12-02T10:42:31.027Z,965.09
2018-12-02T10:43:31.080Z,965.01
2018-12-02T10:44:31.146Z,964.93
2018-12-02T10:45:31.160Z,964.85
2018-12-02T10:46:31.205Z,964.95
2018-12-02T10:47:31.264Z,964.98
2018-12-02T10:48:31.291Z,964.98
2018-12-02T10:49:31.378Z,964.94
2018-12-02T10:50:31.389Z,964.96
2018-12-02T10:51:31.419Z,964.98
2018-12-02T10:52:31.477Z,964.99
2018-12-02T10:53:31.509Z,964.92
2018-12-02T10:54:31.577Z,964.93
2018-12-02T10:55:31.613Z,964.98
2018-12-02T10:56:31.682Z,964.95
2018-12-02T10:57:31.710Z,964.92
2018-12-02T10:58:31.758Z,964.91
2018-12-02T10:59:31.783Z,964.90
2018-12-02T11:00:31.823Z,964.90
2018-12-02T11:01:31.860Z,964.88
2018-12-02T11:02:31.930Z,964.76
2018-12-02T11:03:32.039Z,964.79
2018-12-02T11:04:31.999Z,964.82
2018-12-02T11:05:32.064Z,964.89
2018-12-02T11:06:32.128Z,964.90
2018-12-02T11:07:32.124Z,964.91
2018-12-02T11:08:32.175Z,964.82
2018-12-02T11:09:32.211Z,964.90
2018-12-02T11:10:32.260Z,964.89
2018-12-02T11:11:32.326Z,964.92
2018-12-02T11:12:32.352Z,964.92
2018-12-02T11:13:32.399Z,964.95
2018-12-02T11:14:32.485Z,964.91
2018-12-02T11:15:32.485Z,964.98
2018-12-02T11:16:32.549Z,965.04
2018-12-02T11:17:32.579Z,965.03
2018-12-02T11:18:32.610Z,965.02
2018-12-02T11:19:32.695Z,965.03
2018-12-02T11:20:32.701Z,965.05
2018-12-02T11:21:32.744Z,965.07
2018-12-02T11:22:32.803Z,965.10
2018-12-02T11:23:32.840Z,965.12
2018-12-02T11:24:32.952Z,965.16
2018-12-02T11:25:32.929Z,965.11
2018-12-02T11:26:32.963Z,965.11
2018-12-02T11:27:33.006Z,965.11
2018-12-02T11:28:33.060Z,965.11
2018-12-02T11:29:33.129Z,965.08
2018-12-02T11:30:33.158Z,965.11
2018-12-02T11:31:33.178Z,965.13
2018-12-02T11:32:33.227Z,965.12
2018-12-02T11:33:33.276Z,965.12
2018-12-02T11:34:33.357Z,965.04
2018-12-02T11:35:33.362Z,965.06
2018-12-02T11:36:33.408Z,965.14
2018-12-02T11:37:33.473Z,965.15
2018-12-02T11:38:33.528Z,965.16
2018-12-02T11:39:33.545Z,965.10
2018-12-02T11:40:33.612Z,965.09
2018-12-02T11:41:33.633Z,965.02
2018-12-02T11:42:33.672Z,965.03
2018-12-02T11:43:33.751Z,965.01
2018-12-02T11:44:33.775Z,965.02
2018-12-02T11:45:33.809Z,965.02
2018-12-02T11:46:33.846Z,965.05
2018-12-02T11:47:34.047Z,965.11
2018-12-02T11:48:33.961Z,965.09
2018-12-02T11:49:33.980Z,965.08
2018-12-02T11:50:34.060Z,965.14
2018-12-02T11:51:34.088Z,965.13
2018-12-02T11:52:34.112Z,965.13
2018-12-02T11:53:34.157Z,965.18
2018-12-02T11:54:34.212Z,965.21
2018-12-02T11:55:34.262Z,965.23
2018-12-02T11:56:34.323Z,965.21
2018-12-02T11:57:34.385Z,965.20
2018-12-02T11:58:34.435Z,965.13
2018-12-02T11:59:34.438Z,965.06
2018-12-02T12:00:34.483Z,965.14
2018-12-02T12:01:34.514Z,965.10
2018-12-02T12:02:34.556Z,965.06
2018-12-02T12:03:34.623Z,965.03
2018-12-02T12:04:34.652Z,964.92
2018-12-02T12:05:34.700Z,964.97
2018-12-02T12:06:34.756Z,964.97
2018-12-02T12:07:34.791Z,964.94
2018-12-02T12:08:34.847Z,964.93
2018-12-02T12:09:34.891Z,964.98
2018-12-02T12:10:34.923Z,965.01
2018-12-02T12:11:34.977Z,964.94
2018-12-02T12:12:35.044Z,964.96
2018-12-02T12:13:35.087Z,964.97
2018-12-02T12:14:35.160Z,964.97
2018-12-02T12:15:35.144Z,964.96
2018-12-02T12:16:35.192Z,964.95
2018-12-02T12:17:35.249Z,964.87
2018-12-02T12:18:35.302Z,964.88
2018-12-02T12:19:35.432Z,964.87
2018-12-02T12:20:35.371Z,964.85
2018-12-02T12:21:35.418Z,964.87
2018-12-02T12:22:35.471Z,964.82
2018-12-02T12:23:35.522Z,964.78
2018-12-02T12:24:35.560Z,964.80
2018-12-02T12:25:35.587Z,964.78
2018-12-02T12:26:35.760Z,964.79
2018-12-02T12:27:35.683Z,964.72
2018-12-02T12:28:35.738Z,964.72